createdAt,value
2019-05-13T00:00:59.154Z,0.00
2019-05-13T00:01:59.146Z,0.00
2019-05-13T00:02:59.124Z,0.00
2019-05-13T00:03:59.100Z,0.00
2019-05-13T00:04:59.137Z,0.00
2019-05-13T00:05:59.089Z,0.00
2019-05-13T00:06:59.074Z,0.00
2019-05-13T00:07:59.056Z,0.00
2019-05-13T00:08:59.049Z,0.00
2019-05-13T00:09:59.054Z,0.00
2019-05-13T00:10:59.053Z,0.00
2019-05-13T00:11:59.017Z,0.00
2019-05-13T00:12:59.026Z,0.00
2019-05-13T00:13:58.988Z,0.00
2019-05-13T00:14:59.034Z,0.00
2019-05-13T00:15:58.971Z,0.00
2019-05-13T00:16:58.978Z,0.00
2019-05-13T00:17:58.949Z,0.00
2019-05-13T00:18:58.950Z,0.00
2019-05-13T00:19:58.949Z,0.00
2019-05-13T00:20:58.917Z,0.00
2019-05-13T00:21:58.906Z,0.00
2019-05-13T00:22:58.954Z,0.00
2019-05-13T00:23:58.888Z,0.00
2019-05-13T00:24:58.888Z,0.00
2019-05-13T00:25:58.868Z,0.00
2019-05-13T00:26:58.847Z,0.00
2019-05-13T00:27:58.839Z,0.00
2019-05-13T00:28:58.859Z,0.00
2019-05-13T00:29:58.844Z,0.00
2019-05-13T00:30:58.804Z,0.00
2019-05-13T00:31:58.794Z,0.00
2019-05-13T00:32:58.781Z,0.00
2019-05-13T00:33:58.772Z,0.00
2019-05-13T00:34:58.801Z,0.00
2019-05-13T00:35:58.748Z,0.00
2019-05-13T00:37:08.927Z,0.00
2019-05-13T00:37:59.738Z,0.00
2019-05-13T00:38:58.725Z,0.00
2019-05-13T00:39:58.715Z,0.00
2019-05-13T00:40:58.712Z,0.00
2019-05-13T00:41:58.685Z,0.00
2019-05-13T00:42:58.698Z,0.00
2019-05-13T00:43:58.678Z,0.00
2019-05-13T00:44:58.661Z,0.00
2019-05-13T00:45:58.636Z,0.00
2019-05-13T00:46:58.641Z,0.00
2019-05-13T00:47:58.650Z,0.00
2019-05-13T00:48:58.605Z,0.00
2019-05-13T00:49:58.597Z,0.00
2019-05-13T00:50:58.584Z,0.00
2019-05-13T00:51:58.564Z,0.00
2019-05-13T00:52:58.575Z,0.00
2019-05-13T00:53:58.570Z,0.00
2019-05-13T00:54:59.460Z,0.00
2019-05-13T00:55:58.539Z,0.00
2019-05-13T00:56:58.530Z,0.00
2019-05-13T00:57:58.498Z,0.00
2019-05-13T00:58:58.543Z,0.00
2019-05-13T00:59:58.527Z,0.00
2019-05-13T01:00:58.479Z,0.00
2019-05-13T01:01:58.484Z,0.00
2019-05-13T01:02:58.466Z,0.00
2019-05-13T01:03:58.434Z,0.00
2019-05-13T01:04:58.473Z,0.00
2019-05-13T01:05:58.434Z,0.00
2019-05-13T01:06:58.408Z,0.00
2019-05-13T01:07:58.405Z,0.00
2019-05-13T01:08:58.375Z,0.00
2019-05-13T01:09:58.386Z,0.00
2019-05-13T01:10:58.381Z,0.00
2019-05-13T01:11:58.341Z,0.00
2019-05-13T01:12:58.383Z,0.00
2019-05-13T01:13:58.327Z,0.00
2019-05-13T01:14:58.310Z,0.00
2019-05-13T01:15:58.317Z,0.00
2019-05-13T01:16:58.317Z,0.00
2019-05-13T01:17:58.287Z,0.00
2019-05-13T01:18:58.265Z,0.00
2019-05-13T01:19:58.292Z,0.00
2019-05-13T01:20:58.247Z,0.00
2019-05-13T01:21:58.228Z,0.00
2019-05-13T01:22:58.277Z,0.00
2019-05-13T01:23:58.221Z,0.00
2019-05-13T01:24:58.204Z,0.00
2019-05-13T01:25:58.185Z,0.00
2019-05-13T01:26:58.206Z,0.00
2019-05-13T01:27:58.178Z,0.00
2019-05-13T01:28:58.176Z,0.00
2019-05-13T01:29:58.187Z,0.00
2019-05-13T01:30:58.135Z,0.00
2019-05-13T01:31:58.120Z,0.00
2019-05-13T01:32:58.109Z,0.00
2019-05-13T01:33:58.097Z,0.00
2019-05-13T01:34:58.103Z,0.00
2019-05-13T01:35:58.122Z,0.00
2019-05-13T01:36:58.068Z,0.00
2019-05-13T01:37:58.057Z,0.00
2019-05-13T01:38:58.049Z,0.00
2019-05-13T01:39:58.044Z,0.00
2019-05-13T01:40:58.038Z,0.00
2019-05-13T01:41:58.023Z,0.00
2019-05-13T01:42:57.992Z,0.00
2019-05-13T01:43:57.990Z,0.00
2019-05-13T01:44:57.981Z,0.00
2019-05-13T01:45:57.972Z,0.00
2019-05-13T01:46:57.998Z,0.00
2019-05-13T01:47:57.940Z,0.00
2019-05-13T01:48:57.954Z,0.00
2019-05-13T01:49:57.923Z,0.00
2019-05-13T01:50:57.905Z,0.00
2019-05-13T01:51:57.917Z,0.00
2019-05-13T01:52:57.916Z,0.00
2019-05-13T01:53:57.894Z,0.00
2019-05-13T01:54:57.862Z,0.00
2019-05-13T01:55:57.860Z,0.00
2019-05-13T01:56:57.870Z,0.00
2019-05-13T01:57:57.837Z,0.00
2019-05-13T01:58:57.855Z,0.00
2019-05-13T01:59:57.827Z,0.00
2019-05-13T02:00:57.793Z,0.00
2019-05-13T02:01:57.786Z,0.00
2019-05-13T02:02:57.775Z,0.00
2019-05-13T02:03:57.774Z,0.00
2019-05-13T02:04:57.776Z,0.00
2019-05-13T02:05:57.740Z,0.00
2019-05-13T02:06:57.723Z,0.00
2019-05-13T02:08:00.584Z,0.00
2019-05-13T02:08:57.721Z,0.00
2019-05-13T02:09:57.704Z,0.00
2019-05-13T02:10:57.711Z,0.00
2019-05-13T02:11:57.687Z,0.00
2019-05-13T02:12:57.656Z,0.00
2019-05-13T02:13:57.658Z,0.00
2019-05-13T02:14:57.638Z,0.00
2019-05-13T02:15:57.622Z,0.00
2019-05-13T02:16:57.638Z,0.00
2019-05-13T02:17:57.604Z,0.00
2019-05-13T02:18:57.594Z,0.00
2019-05-13T02:19:57.581Z,0.00
2019-05-13T02:20:57.573Z,0.00
2019-05-13T02:21:57.560Z,0.00
2019-05-13T02:22:57.582Z,0.00
2019-05-13T02:23:57.553Z,0.00
2019-05-13T02:24:57.527Z,0.00
2019-05-13T02:25:57.534Z,0.00
2019-05-13T02:26:57.536Z,0.00
2019-05-13T02:27:57.533Z,0.00
2019-05-13T02:28:57.498Z,0.00
2019-05-13T02:29:57.475Z,0.00
2019-05-13T02:30:57.468Z,0.00
2019-05-13T02:31:57.496Z,0.00
2019-05-13T02:32:57.433Z,0.00
2019-05-13T02:33:57.431Z,0.00
2019-05-13T02:34:57.430Z,0.00
2019-05-13T02:35:57.465Z,0.00
2019-05-13T02:36:57.390Z,0.00
2019-05-13T02:38:14.741Z,0.00
2019-05-13T02:38:58.378Z,0.00
2019-05-13T02:39:57.354Z,0.00
2019-05-13T02:40:57.512Z,0.00
2019-05-13T02:41:57.352Z,0.00
2019-05-13T02:42:57.342Z,0.00
2019-05-13T02:43:57.310Z,0.00
2019-05-13T02:44:57.296Z,0.00
2019-05-13T02:45:57.338Z,0.00
2019-05-13T02:46:57.325Z,0.00
2019-05-13T02:47:57.265Z,0.00
2019-05-13T02:48:57.253Z,0.00
2019-05-13T02:50:00.916Z,0.00
2019-05-13T02:50:58.244Z,0.00
2019-05-13T02:51:57.222Z,0.00
2019-05-13T02:52:57.266Z,0.00
2019-05-13T02:53:57.203Z,0.00
2019-05-13T02:54:57.190Z,0.00
2019-05-13T02:55:57.173Z,0.00
2019-05-13T02:56:57.192Z,0.00
2019-05-13T02:57:57.170Z,0.00
2019-05-13T02:58:57.191Z,0.00
2019-05-13T02:59:57.126Z,0.00
2019-05-13T03:00:57.174Z,0.00
2019-05-13T03:01:57.119Z,4.00
2019-05-13T03:02:57.093Z,4.00
2019-05-13T03:03:57.078Z,4.00
2019-05-13T03:04:57.090Z,0.00
2019-05-13T03:05:57.082Z,0.00
2019-05-13T03:06:57.074Z,4.00
2019-05-13T03:07:57.040Z,4.00
2019-05-13T03:08:57.039Z,4.00
2019-05-13T03:09:57.027Z,4.00
2019-05-13T03:10:57.034Z,4.00
2019-05-13T03:11:56.989Z,8.00
2019-05-13T03:12:57.015Z,8.00
2019-05-13T03:13:56.971Z,12.00
2019-05-13T03:14:56.988Z,8.00
2019-05-13T03:15:56.962Z,12.00
2019-05-13T03:16:56.969Z,12.00
2019-05-13T03:17:56.946Z,16.00
2019-05-13T03:18:56.933Z,20.00
2019-05-13T03:19:56.933Z,20.00
2019-05-13T03:20:56.911Z,28.00
2019-05-13T03:21:56.897Z,28.00
2019-05-13T03:22:56.917Z,32.00
2019-05-13T03:23:56.897Z,40.00
2019-05-13T03:24:56.897Z,44.00
2019-05-13T03:25:56.848Z,52.00
2019-05-13T03:26:56.834Z,56.00
2019-05-13T03:27:56.841Z,64.00
2019-05-13T03:28:56.845Z,76.00
2019-05-13T03:29:56.819Z,88.00
2019-05-13T03:30:57.274Z,100.00
2019-05-13T03:31:57.046Z,108.00
2019-05-13T03:33:02.188Z,124.00
2019-05-13T03:33:57.825Z,136.00
2019-05-13T03:34:57.275Z,156.00
2019-05-13T03:35:56.857Z,172.00
2019-05-13T03:36:58.078Z,192.00
2019-05-13T03:37:56.734Z,216.00
2019-05-13T03:39:05.561Z,232.00
2019-05-13T03:39:57.718Z,260.00
2019-05-13T03:40:56.687Z,284.00
2019-05-13T03:41:56.664Z,312.00
2019-05-13T03:42:56.655Z,340.00
2019-05-13T03:43:56.655Z,368.00
2019-05-13T03:44:56.648Z,400.00
2019-05-13T03:45:56.654Z,436.00
2019-05-13T03:46:56.620Z,472.00
2019-05-13T03:47:56.677Z,508.00
2019-05-13T03:48:56.619Z,548.00
2019-05-13T03:49:56.597Z,584.00
2019-05-13T03:50:56.584Z,628.00
2019-05-13T03:51:56.595Z,672.00
2019-05-13T03:52:56.591Z,712.00
2019-05-13T03:53:56.540Z,760.00
2019-05-13T03:54:56.523Z,804.00
2019-05-13T03:55:56.518Z,856.00
2019-05-13T03:56:56.498Z,904.00
2019-05-13T03:57:56.556Z,952.00
2019-05-13T03:58:56.480Z,1004.00
2019-05-13T03:59:56.470Z,1056.00
2019-05-13T04:00:56.465Z,1128.00
2019-05-13T04:01:56.444Z,1204.00
2019-05-13T04:02:56.438Z,1256.00
2019-05-13T04:03:56.462Z,1304.00
2019-05-13T04:04:59.020Z,1360.00
2019-05-13T04:05:57.409Z,1416.00
2019-05-13T04:06:56.395Z,1476.00
2019-05-13T04:07:56.402Z,1536.00
2019-05-13T04:09:15.685Z,1592.00
2019-05-13T04:09:57.373Z,1660.00
2019-05-13T04:10:56.344Z,1716.00
2019-05-13T04:11:56.362Z,1792.00
2019-05-13T04:12:56.345Z,1872.00
2019-05-13T04:13:56.342Z,1948.00
2019-05-13T04:14:56.306Z,2036.00
2019-05-13T04:15:56.340Z,2136.00
2019-05-13T04:16:56.310Z,2236.00
2019-05-13T04:17:56.286Z,2368.00
2019-05-13T04:18:56.276Z,2536.00
2019-05-13T04:19:56.246Z,2736.00
2019-05-13T04:20:56.926Z,2996.00
2019-05-13T04:21:56.263Z,3328.00
2019-05-13T04:22:56.243Z,3688.00
2019-05-13T04:23:56.199Z,4008.00
2019-05-13T04:24:56.216Z,4216.00
2019-05-13T04:25:56.182Z,4344.00
2019-05-13T04:26:56.179Z,4424.00
2019-05-13T04:27:56.183Z,4508.00
2019-05-13T04:28:56.164Z,4600.00
2019-05-13T04:29:56.144Z,4668.00
2019-05-13T04:30:56.159Z,4772.00
2019-05-13T04:31:56.130Z,4900.00
2019-05-13T04:32:56.114Z,5280.00
2019-05-13T04:33:56.127Z,5688.00
2019-05-13T04:34:56.123Z,6088.00
2019-05-13T04:35:56.084Z,7164.00
2019-05-13T04:36:56.064Z,8356.00
2019-05-13T04:37:56.059Z,8688.00
2019-05-13T04:38:56.064Z,8392.00
2019-05-13T04:39:56.698Z,9940.00
2019-05-13T04:40:56.030Z,10996.00
2019-05-13T04:41:56.045Z,10992.00
2019-05-13T04:42:56.002Z,12680.00
2019-05-13T04:43:55.995Z,12268.00
2019-05-13T04:44:55.972Z,11692.00
2019-05-13T04:45:55.987Z,13632.00
2019-05-13T04:46:55.951Z,16672.00
2019-05-13T04:47:55.943Z,16512.00
2019-05-13T04:48:55.926Z,16736.00
2019-05-13T04:49:55.925Z,20960.00
2019-05-13T04:50:55.924Z,23936.00
2019-05-13T04:51:55.920Z,21792.00
2019-05-13T04:52:55.884Z,17088.00
2019-05-13T04:53:57.273Z,9404.00
2019-05-13T04:54:55.869Z,21920.00
2019-05-13T04:55:55.851Z,22816.00
2019-05-13T04:56:55.832Z,26048.00
2019-05-13T04:57:55.845Z,27264.00
2019-05-13T04:58:55.820Z,26688.00
2019-05-13T04:59:55.804Z,26752.00
2019-05-13T05:01:02.726Z,26176.00
2019-05-13T05:01:59.379Z,23520.00
2019-05-13T05:02:56.786Z,23648.00
2019-05-13T05:03:55.777Z,30624.00
2019-05-13T05:04:55.761Z,36960.00
2019-05-13T05:05:55.774Z,33344.00
2019-05-13T05:06:55.780Z,40160.00
2019-05-13T05:07:55.721Z,36352.00
2019-05-13T05:08:55.726Z,30048.00
2019-05-13T05:10:16.778Z,24160.00
2019-05-13T05:10:56.686Z,22624.00
2019-05-13T05:11:55.705Z,22496.00
2019-05-13T05:12:55.671Z,22208.00
2019-05-13T05:13:56.683Z,23296.00
2019-05-13T05:14:55.667Z,23776.00
2019-05-13T05:15:55.635Z,11904.00
2019-05-13T05:16:55.619Z,15392.00
2019-05-13T05:17:55.604Z,14184.00
2019-05-13T05:18:55.595Z,16128.00
2019-05-13T05:19:55.585Z,13072.00
2019-05-13T05:20:55.595Z,21696.00
2019-05-13T05:21:55.719Z,22400.00
2019-05-13T05:22:55.570Z,24192.00
2019-05-13T05:23:55.537Z,23904.00
2019-05-13T05:24:55.523Z,24096.00
2019-05-13T05:25:55.513Z,24192.00
2019-05-13T05:26:55.526Z,24704.00
2019-05-13T05:27:58.196Z,24064.00
2019-05-13T05:28:55.482Z,23584.00
2019-05-13T05:29:55.468Z,22912.00
2019-05-13T05:30:55.452Z,22112.00
2019-05-13T05:31:55.473Z,23392.00
2019-05-13T05:32:55.456Z,20672.00
2019-05-13T05:33:55.433Z,16512.00
2019-05-13T05:34:55.421Z,23456.00
2019-05-13T05:35:55.398Z,24096.00
2019-05-13T05:36:55.402Z,22688.00
2019-05-13T05:37:55.384Z,22912.00
2019-05-13T05:38:55.388Z,24672.00
2019-05-13T05:39:55.350Z,15936.00
2019-05-13T05:40:55.341Z,23296.00
2019-05-13T05:41:55.331Z,24128.00
2019-05-13T05:42:55.318Z,20512.00
2019-05-13T05:43:55.320Z,20896.00
2019-05-13T05:44:55.320Z,18944.00
2019-05-13T05:45:55.294Z,21408.00
2019-05-13T05:46:55.281Z,20704.00
2019-05-13T05:47:55.293Z,26336.00
2019-05-13T05:48:55.249Z,27776.00
2019-05-13T05:49:55.238Z,29152.00
2019-05-13T05:50:55.255Z,34656.00
2019-05-13T05:51:55.224Z,31840.00
2019-05-13T05:52:55.204Z,32192.00
2019-05-13T05:53:55.194Z,38400.00
2019-05-13T05:54:55.190Z,44224.00
2019-05-13T05:55:55.180Z,48384.00
2019-05-13T05:56:55.180Z,46016.00
2019-05-13T05:57:55.147Z,47808.00
2019-05-13T05:58:55.141Z,52480.00
2019-05-13T05:59:55.128Z,45568.00
2019-05-13T06:00:55.130Z,35488.00
2019-05-13T06:01:55.104Z,46016.00
2019-05-13T06:02:55.113Z,34272.00
2019-05-13T06:03:55.082Z,36608.00
2019-05-13T06:04:55.071Z,40704.00
2019-05-13T06:05:55.058Z,41344.00
2019-05-13T06:06:55.077Z,38528.00
2019-05-13T06:07:55.034Z,39232.00
2019-05-13T06:08:55.047Z,42752.00
2019-05-13T06:09:55.012Z,37280.00
2019-05-13T06:10:55.963Z,50080.00
2019-05-13T06:11:54.992Z,60192.00
2019-05-13T06:12:55.007Z,62528.00
2019-05-13T06:13:54.967Z,61760.00
2019-05-13T06:14:54.982Z,49600.00
2019-05-13T06:15:54.969Z,64352.00
2019-05-13T06:16:54.968Z,45184.00
2019-05-13T06:17:54.927Z,57568.00
2019-05-13T06:18:54.925Z,53056.00
2019-05-13T06:19:54.907Z,58112.00
2019-05-13T06:20:54.920Z,40576.00
2019-05-13T06:21:54.883Z,44832.00
2019-05-13T06:22:54.879Z,49120.00
2019-05-13T06:23:54.862Z,55552.00
2019-05-13T06:24:54.862Z,54560.00
2019-05-13T06:25:54.842Z,54656.00
2019-05-13T06:26:54.851Z,50048.00
2019-05-13T06:27:54.820Z,54336.00
2019-05-13T06:28:54.813Z,59168.00
2019-05-13T06:29:54.800Z,57056.00
2019-05-13T06:30:54.824Z,53952.00
2019-05-13T06:31:54.782Z,60064.00
2019-05-13T06:32:54.795Z,56832.00
2019-05-13T06:33:54.761Z,51424.00
2019-05-13T06:34:54.740Z,54112.00
2019-05-13T06:35:54.754Z,48352.00
2019-05-13T06:36:54.716Z,56704.00
2019-05-13T06:37:54.703Z,56160.00
2019-05-13T06:38:54.733Z,55264.00
2019-05-13T06:39:54.684Z,56800.00
2019-05-13T06:41:03.386Z,58304.00
2019-05-13T06:41:55.680Z,61824.00
2019-05-13T06:42:54.649Z,62304.00
2019-05-13T06:43:54.661Z,59680.00
2019-05-13T06:44:54.658Z,59776.00
2019-05-13T06:45:54.614Z,57536.00
2019-05-13T06:46:54.634Z,51968.00
2019-05-13T06:47:54.591Z,55392.00
2019-05-13T06:48:54.579Z,50048.00
2019-05-13T06:49:54.567Z,58176.00
2019-05-13T06:50:54.579Z,59712.00
2019-05-13T06:51:54.566Z,54816.00
2019-05-13T06:52:54.576Z,50720.00
2019-05-13T06:53:54.554Z,52928.00
2019-05-13T06:54:54.512Z,53216.00
2019-05-13T06:55:54.503Z,49536.00
2019-05-13T06:56:54.515Z,46816.00
2019-05-13T06:57:54.501Z,41856.00
2019-05-13T06:58:54.472Z,56960.00
2019-05-13T06:59:54.457Z,49824.00
2019-05-13T07:00:58.101Z,45184.00
2019-05-13T07:01:54.439Z,45024.00
2019-05-13T07:02:54.453Z,42304.00
2019-05-13T07:03:54.416Z,45920.00
2019-05-13T07:04:54.405Z,55392.00
2019-05-13T07:05:54.397Z,48704.00
2019-05-13T07:07:08.945Z,47104.00
2019-05-13T07:07:55.419Z,56608.00
2019-05-13T07:08:54.356Z,59808.00
2019-05-13T07:09:54.350Z,60032.00
2019-05-13T07:10:54.336Z,58112.00
2019-05-13T07:11:56.905Z,57088.00
2019-05-13T07:12:54.337Z,63200.00
2019-05-13T07:13:54.352Z,61952.00
2019-05-13T07:14:54.306Z,58624.00
2019-05-13T07:15:54.287Z,55616.00
2019-05-13T07:16:54.272Z,54400.00
2019-05-13T07:17:54.265Z,58016.00
2019-05-13T07:18:54.253Z,46592.00
2019-05-13T07:19:54.256Z,48704.00
2019-05-13T07:20:54.230Z,52032.00
2019-05-13T07:21:54.223Z,55520.00
2019-05-13T07:22:54.210Z,63232.00
2019-05-13T07:23:55.001Z,59648.00
2019-05-13T07:24:54.183Z,57536.00
2019-05-13T07:25:54.190Z,52832.00
2019-05-13T07:26:54.166Z,58880.00
2019-05-13T07:27:54.156Z,57440.00
2019-05-13T07:28:54.139Z,60864.00
2019-05-13T07:29:55.746Z,55776.00
2019-05-13T07:30:54.121Z,55520.00
2019-05-13T07:31:54.128Z,50144.00
2019-05-13T07:32:54.095Z,56064.00
2019-05-13T07:33:54.083Z,50624.00
2019-05-13T07:34:54.085Z,58432.00
2019-05-13T07:35:58.299Z,55328.00
2019-05-13T07:36:54.052Z,43424.00
2019-05-13T07:37:54.062Z,44544.00
2019-05-13T07:38:54.032Z,50976.00
2019-05-13T07:39:54.025Z,50112.00
2019-05-13T07:40:54.015Z,52384.00
2019-05-13T07:41:53.998Z,55744.00
2019-05-13T07:42:53.991Z,59808.00
2019-05-13T07:43:54.002Z,67968.00
2019-05-13T07:44:53.973Z,65920.00
2019-05-13T07:45:53.962Z,69088.00
2019-05-13T07:46:53.942Z,56288.00
2019-05-13T07:47:53.933Z,60704.00
2019-05-13T07:48:53.925Z,58432.00
2019-05-13T07:49:53.927Z,68448.00
2019-05-13T07:51:00.363Z,63072.00
2019-05-13T07:51:54.981Z,77408.00
2019-05-13T07:52:53.879Z,79264.00
2019-05-13T07:53:53.870Z,74496.00
2019-05-13T07:54:53.856Z,78272.00
2019-05-13T07:55:53.867Z,71744.00
2019-05-13T07:56:53.837Z,72832.00
2019-05-13T07:57:53.832Z,72160.00
2019-05-13T07:58:53.818Z,66464.00
2019-05-13T07:59:53.803Z,65728.00
2019-05-13T08:00:53.797Z,67968.00
2019-05-13T08:01:53.809Z,59456.00
2019-05-13T08:02:53.775Z,65536.00
2019-05-13T08:03:53.759Z,56992.00
2019-05-13T08:04:53.746Z,63104.00
2019-05-13T08:05:53.737Z,68448.00
2019-05-13T08:06:53.729Z,69632.00
2019-05-13T08:07:53.746Z,72416.00
2019-05-13T08:08:53.724Z,73024.00
2019-05-13T08:09:56.096Z,80320.00
2019-05-13T08:10:54.681Z,79328.00
2019-05-13T08:12:05.163Z,73664.00
2019-05-13T08:12:54.684Z,65696.00
2019-05-13T08:13:53.655Z,92704.00
2019-05-13T08:14:53.639Z,92384.00
2019-05-13T08:15:54.734Z,95040.00
2019-05-13T08:16:53.623Z,81376.00
2019-05-13T08:17:53.630Z,90528.00
2019-05-13T08:18:53.618Z,85824.00
2019-05-13T08:19:53.588Z,82464.00
2019-05-13T08:20:53.588Z,85440.00
2019-05-13T08:21:53.565Z,85888.00
2019-05-13T08:22:53.559Z,83744.00
2019-05-13T08:23:53.543Z,83040.00
2019-05-13T08:24:54.444Z,83936.00
2019-05-13T08:25:53.524Z,88608.00
2019-05-13T08:26:53.586Z,87648.00
2019-05-13T08:27:53.503Z,93056.00
2019-05-13T08:29:01.252Z,91648.00
2019-05-13T08:29:54.506Z,89760.00
2019-05-13T08:30:53.532Z,95936.00
2019-05-13T08:31:53.468Z,96000.00
2019-05-13T08:32:53.464Z,92384.00
2019-05-13T08:33:53.455Z,90304.00
2019-05-13T08:35:01.695Z,76768.00
2019-05-13T08:35:58.691Z,94432.00
2019-05-13T08:36:53.409Z,122688.00
2019-05-13T08:37:53.398Z,105344.00
2019-05-13T08:38:53.388Z,81344.00
2019-05-13T08:39:53.374Z,84512.00
2019-05-13T08:40:53.367Z,96032.00
2019-05-13T08:41:53.391Z,95168.00
2019-05-13T08:42:53.349Z,95328.00
2019-05-13T08:43:53.383Z,100160.00
2019-05-13T08:44:53.337Z,92256.00
2019-05-13T08:45:55.635Z,85984.00
2019-05-13T08:46:53.302Z,79648.00
2019-05-13T08:47:53.356Z,74720.00
2019-05-13T08:48:53.308Z,84032.00
2019-05-13T08:49:53.292Z,86560.00
2019-05-13T08:50:53.305Z,74240.00
2019-05-13T08:51:53.252Z,99968.00
2019-05-13T08:52:53.269Z,103552.00
2019-05-13T08:53:53.319Z,66752.00
2019-05-13T08:54:53.227Z,95744.00
2019-05-13T08:55:53.224Z,97216.00
2019-05-13T08:56:53.199Z,98400.00
2019-05-13T08:57:55.272Z,78208.00
2019-05-13T08:58:53.199Z,99424.00
2019-05-13T08:59:53.200Z,104000.00
2019-05-13T09:00:53.382Z,78016.00
2019-05-13T09:01:53.147Z,77824.00
2019-05-13T09:02:53.137Z,102784.00
2019-05-13T09:03:53.126Z,103680.00
2019-05-13T09:04:53.125Z,87232.00
2019-05-13T09:05:53.169Z,94272.00
2019-05-13T09:06:53.104Z,96704.00
2019-05-13T09:07:53.089Z,83648.00
2019-05-13T09:08:54.262Z,82016.00
2019-05-13T09:09:53.068Z,92064.00
2019-05-13T09:10:56.547Z,94368.00
2019-05-13T09:11:53.069Z,92320.00
2019-05-13T09:12:53.046Z,93504.00
2019-05-13T09:13:53.026Z,93024.00
2019-05-13T09:14:53.015Z,91648.00
2019-05-13T09:15:53.019Z,97216.00
2019-05-13T09:16:53.007Z,97440.00
2019-05-13T09:17:53.022Z,99840.00
2019-05-13T09:18:52.975Z,97248.00
2019-05-13T09:19:53.022Z,103168.00
2019-05-13T09:20:52.956Z,92896.00
2019-05-13T09:21:52.945Z,92928.00
2019-05-13T09:22:52.939Z,90272.00
2019-05-13T09:23:52.953Z,91328.00
2019-05-13T09:24:53.191Z,98528.00
2019-05-13T09:25:52.905Z,98880.00
2019-05-13T09:26:52.916Z,98528.00
2019-05-13T09:27:52.886Z,90464.00
2019-05-13T09:28:52.892Z,87712.00
2019-05-13T09:29:52.906Z,92800.00
2019-05-13T09:30:53.380Z,87104.00
2019-05-13T09:31:52.843Z,91776.00
2019-05-13T09:32:52.834Z,87456.00
2019-05-13T09:33:52.828Z,82528.00
2019-05-13T09:34:52.827Z,90528.00
2019-05-13T09:35:53.718Z,87744.00
2019-05-13T09:36:52.796Z,93312.00
2019-05-13T09:37:52.817Z,93440.00
2019-05-13T09:38:52.777Z,96800.00
2019-05-13T09:39:52.773Z,92576.00
2019-05-13T09:40:53.320Z,90752.00
2019-05-13T09:41:52.774Z,96032.00
2019-05-13T09:42:55.224Z,100064.00
2019-05-13T09:43:52.732Z,99648.00
2019-05-13T09:44:52.767Z,99136.00
2019-05-13T09:45:52.747Z,99872.00
2019-05-13T09:46:52.692Z,98176.00
2019-05-13T09:47:52.737Z,96448.00
2019-05-13T09:48:52.671Z,94176.00
2019-05-13T09:49:54.553Z,99104.00
2019-05-13T09:50:52.654Z,99616.00
2019-05-13T09:51:52.643Z,92960.00
2019-05-13T09:52:52.655Z,98272.00
2019-05-13T09:53:52.647Z,99872.00
2019-05-13T09:54:52.612Z,100000.00
2019-05-13T09:55:52.658Z,99840.00
2019-05-13T09:56:52.595Z,99776.00
2019-05-13T09:57:52.656Z,98112.00
2019-05-13T09:58:52.579Z,97344.00
2019-05-13T09:59:52.602Z,95424.00
2019-05-13T10:00:53.294Z,98304.00
2019-05-13T10:01:52.555Z,98496.00
2019-05-13T10:02:52.543Z,98400.00
2019-05-13T10:03:57.189Z,100832.00
2019-05-13T10:04:53.547Z,98688.00
2019-05-13T10:05:52.517Z,97216.00
2019-05-13T10:06:52.506Z,97472.00
2019-05-13T10:07:52.488Z,100064.00
2019-05-13T10:08:52.824Z,99520.00
2019-05-13T10:09:52.474Z,101696.00
2019-05-13T10:10:52.975Z,99232.00
2019-05-13T10:11:52.457Z,95648.00
2019-05-13T10:13:07.931Z,87040.00
2019-05-13T10:13:53.440Z,87104.00
2019-05-13T10:14:52.431Z,92288.00
2019-05-13T10:15:52.414Z,90752.00
2019-05-13T10:16:52.430Z,90432.00
2019-05-13T10:17:52.778Z,88896.00
2019-05-13T10:18:52.822Z,93664.00
2019-05-13T10:19:52.403Z,95488.00
2019-05-13T10:20:57.228Z,97280.00
2019-05-13T10:21:53.374Z,100096.00
2019-05-13T10:22:52.902Z,101792.00
2019-05-13T10:23:52.354Z,104320.00
2019-05-13T10:24:52.329Z,101888.00
2019-05-13T10:25:52.326Z,100672.00
2019-05-13T10:26:52.312Z,102400.00
2019-05-13T10:27:52.316Z,103616.00
2019-05-13T10:28:52.301Z,103328.00
2019-05-13T10:29:52.309Z,84704.00
2019-05-13T10:30:53.041Z,97504.00
2019-05-13T10:31:52.275Z,94592.00
2019-05-13T10:32:52.778Z,100032.00
2019-05-13T10:33:52.278Z,102720.00
2019-05-13T10:34:52.251Z,104032.00
2019-05-13T10:35:52.687Z,103232.00
2019-05-13T10:36:52.238Z,98816.00
2019-05-13T10:37:52.431Z,81856.00
2019-05-13T10:38:52.639Z,92608.00
2019-05-13T10:39:52.243Z,95360.00
2019-05-13T10:40:52.272Z,93856.00
2019-05-13T10:41:52.553Z,97472.00
2019-05-13T10:42:52.488Z,100160.00
2019-05-13T10:43:52.340Z,101568.00
2019-05-13T10:44:52.498Z,103296.00
2019-05-13T10:45:52.580Z,104064.00
2019-05-13T10:46:52.390Z,103808.00
2019-05-13T10:47:52.116Z,103968.00
2019-05-13T10:48:52.807Z,101696.00
2019-05-13T10:49:52.500Z,100352.00
2019-05-13T10:50:53.118Z,99072.00
2019-05-13T10:51:52.759Z,99680.00
2019-05-13T10:52:52.324Z,98048.00
2019-05-13T10:53:53.578Z,97664.00
2019-05-13T10:54:53.041Z,98016.00
2019-05-13T10:55:52.407Z,99296.00
2019-05-13T10:56:54.168Z,99392.00
2019-05-13T10:57:52.034Z,98080.00
2019-05-13T10:58:53.464Z,99488.00
2019-05-13T10:59:52.917Z,102752.00
2019-05-13T11:00:51.988Z,103104.00
2019-05-13T11:01:52.034Z,102944.00
2019-05-13T11:02:52.000Z,101280.00
2019-05-13T11:03:52.578Z,94784.00
2019-05-13T11:04:52.731Z,87712.00
2019-05-13T11:05:52.775Z,77760.00
2019-05-13T11:06:52.635Z,73696.00
2019-05-13T11:07:51.912Z,77056.00
2019-05-13T11:08:53.102Z,84832.00
2019-05-13T11:09:52.932Z,94400.00
2019-05-13T11:10:53.137Z,101888.00
2019-05-13T11:11:52.867Z,103616.00
2019-05-13T11:12:52.151Z,101536.00
2019-05-13T11:13:58.850Z,102560.00
2019-05-13T11:14:55.156Z,101120.00
2019-05-13T11:15:57.487Z,101440.00
2019-05-13T11:16:52.823Z,101152.00
2019-05-13T11:17:52.011Z,98912.00
2019-05-13T11:18:52.141Z,97504.00
2019-05-13T11:19:51.800Z,96928.00
2019-05-13T11:20:51.834Z,96704.00
2019-05-13T11:21:51.781Z,96320.00
2019-05-13T11:22:52.228Z,91520.00
2019-05-13T11:23:52.329Z,88416.00
2019-05-13T11:24:51.987Z,88448.00
2019-05-13T11:25:52.426Z,93504.00
2019-05-13T11:26:52.981Z,98144.00
2019-05-13T11:27:52.461Z,100704.00
2019-05-13T11:28:52.273Z,98784.00
2019-05-13T11:29:52.456Z,97824.00
2019-05-13T11:30:52.206Z,95200.00
2019-05-13T11:31:52.691Z,94208.00
2019-05-13T11:32:51.863Z,93344.00
2019-05-13T11:33:52.206Z,92224.00
2019-05-13T11:34:52.921Z,93376.00
2019-05-13T11:35:52.512Z,90976.00
2019-05-13T11:36:53.120Z,92768.00
2019-05-13T11:37:52.170Z,92992.00
2019-05-13T11:38:53.180Z,89888.00
2019-05-13T11:39:51.819Z,91424.00
2019-05-13T11:40:52.319Z,76384.00
2019-05-13T11:41:51.626Z,32640.00
2019-05-13T11:42:52.611Z,6676.00
2019-05-13T11:44:09.275Z,6388.00
2019-05-13T11:44:53.051Z,6360.00
2019-05-13T11:45:51.808Z,6340.00
2019-05-13T11:46:53.027Z,6328.00
2019-05-13T11:47:52.223Z,6320.00
2019-05-13T11:48:52.031Z,6300.00
2019-05-13T11:49:52.403Z,6284.00
2019-05-13T11:50:54.105Z,6268.00
2019-05-13T11:51:52.044Z,6264.00
2019-05-13T11:52:52.438Z,6248.00
2019-05-13T11:53:52.433Z,6232.00
2019-05-13T11:54:53.863Z,6208.00
2019-05-13T11:55:52.300Z,6196.00
2019-05-13T11:57:53.352Z,6152.00
2019-05-13T11:58:53.293Z,6152.00
2019-05-13T11:59:52.664Z,6132.00
2019-05-13T12:00:53.091Z,6104.00
2019-05-13T12:01:53.823Z,6076.00
2019-05-13T12:02:54.605Z,6068.00
2019-05-13T12:04:53.536Z,6060.00
2019-05-13T12:05:53.695Z,6056.00
2019-05-13T12:06:54.579Z,6060.00
2019-05-13T12:07:53.522Z,6024.00
2019-05-13T12:08:55.000Z,6012.00
2019-05-13T12:09:51.862Z,5988.00
2019-05-13T12:10:52.010Z,5972.00
2019-05-13T12:11:51.263Z,5972.00
2019-05-13T12:12:51.236Z,5960.00
2019-05-13T12:13:52.910Z,5936.00